Terminal Aerodrome Forecast
Issued by NWS Green Bay, WI

Home | Current Version | Previous Version | Graphics & Text | Print | Product List | Glossary On
Versions: 1 2 3 4 5 6 7 8 9 10 11 12 13 14 15 16 17 18 19 20 21 22 23 24 25 26 27 28 29 30 31 32 33
000
FTUS43 KGRB 290300 AAA
TAFGRB
TAF AMD
KGRB 290358Z 2904/2924 13006KT P6SM VCSH OVC060
     FM290700 12004KT 4SM -SHRA BR BKN035 OVC050
     FM291300 17008KT 5SM -SHRA SCT015 OVC023
      TEMPO 2913/2917 2SM TSRA OVC015CB
     FM292100 17012KT 4SM -SHRA BR BKN020 OVC035=

USA.gov is the U.S. government's official web portal to all federal, state and local government web resources and services.